createdAt,value
2023-04-30T00:00:43.981Z,0
2023-04-30T00:01:44.612Z,0
2023-04-30T00:02:45.263Z,0
2023-04-30T00:03:45.946Z,0
2023-04-30T00:04:46.576Z,0
2023-04-30T00:05:47.167Z,0
2023-04-30T00:06:47.793Z,0
2023-04-30T00:07:48.368Z,0
2023-04-30T00:08:48.970Z,0
2023-04-30T00:09:49.573Z,0
2023-04-30T00:10:50.152Z,0
2023-04-30T00:11:50.756Z,0
2023-04-30T00:12:51.360Z,0
2023-04-30T00:13:51.964Z,0
2023-04-30T00:14:52.545Z,0
2023-04-30T00:15:53.179Z,0
2023-04-30T00:16:53.747Z,0
2023-04-30T00:17:54.360Z,0
2023-04-30T00:18:54.930Z,0
2023-04-30T00:19:55.889Z,0
2023-04-30T00:20:56.145Z,0
2023-04-30T00:21:56.731Z,0
2023-04-30T00:22:57.318Z,0
2023-04-30T00:23:57.917Z,0
2023-04-30T00:24:58.526Z,0
2023-04-30T00:25:59.120Z,0
2023-04-30T00:26:59.738Z,0
2023-04-30T00:28:00.343Z,0
2023-04-30T00:29:00.944Z,0
2023-04-30T00:30:01.533Z,0
2023-04-30T00:31:02.128Z,0
2023-04-30T00:32:02.758Z,0
2023-04-30T00:33:03.382Z,0
2023-04-30T00:34:03.919Z,0
2023-04-30T00:35:04.548Z,0
2023-04-30T00:36:05.132Z,0
2023-04-30T00:37:05.720Z,0
2023-04-30T00:38:06.315Z,0
2023-04-30T00:39:06.928Z,0
2023-04-30T00:40:07.521Z,0
2023-04-30T00:41:08.131Z,0
2023-04-30T00:42:08.737Z,0
2023-04-30T00:43:09.319Z,0
2023-04-30T00:44:09.936Z,0
2023-04-30T00:45:10.528Z,0
2023-04-30T00:46:11.163Z,0
2023-04-30T00:47:11.717Z,0
2023-04-30T00:48:12.379Z,0
2023-04-30T00:49:12.938Z,0
2023-04-30T00:50:13.537Z,0
2023-04-30T00:51:14.148Z,0
2023-04-30T00:52:14.743Z,0
2023-04-30T00:53:15.364Z,0
2023-04-30T00:54:15.950Z,0
2023-04-30T00:55:16.550Z,0
2023-04-30T00:56:17.142Z,0
2023-04-30T00:57:17.755Z,0
2023-04-30T00:58:18.323Z,0
2023-04-30T00:59:18.940Z,0
2023-04-30T01:00:19.509Z,0
2023-04-30T01:01:20.143Z,0
2023-04-30T01:02:20.750Z,0
2023-04-30T01:03:21.361Z,0
2023-04-30T01:04:21.917Z,0
2023-04-30T01:05:22.507Z,0
2023-04-30T01:06:23.164Z,0
2023-04-30T01:07:23.764Z,0
2023-04-30T01:08:24.355Z,0
2023-04-30T01:09:24.966Z,0
2023-04-30T01:10:25.543Z,0
2023-04-30T01:11:26.134Z,0
2023-04-30T01:12:26.731Z,0
2023-04-30T01:13:27.326Z,0
2023-04-30T01:14:27.998Z,0
2023-04-30T01:15:28.523Z,0
2023-04-30T01:16:29.220Z,0
2023-04-30T01:17:29.794Z,0
2023-04-30T01:18:30.513Z,0
2023-04-30T01:19:31.003Z,0
2023-04-30T01:20:31.610Z,0
2023-04-30T01:21:32.207Z,0
2023-04-30T01:22:32.799Z,0
2023-04-30T01:23:33.392Z,0
2023-04-30T01:24:34.012Z,0
2023-04-30T01:25:34.598Z,0
2023-04-30T01:26:35.192Z,0
2023-04-30T01:27:35.785Z,0
2023-04-30T01:28:36.440Z,0
2023-04-30T01:29:36.973Z,0
2023-04-30T01:30:37.573Z,0
2023-04-30T01:31:38.223Z,0
2023-04-30T01:32:38.822Z,0
2023-04-30T01:33:39.407Z,0
2023-04-30T01:34:40.019Z,0
2023-04-30T01:35:40.635Z,0
2023-04-30T01:36:41.230Z,0
2023-04-30T01:37:41.823Z,0
2023-04-30T01:38:42.462Z,0
2023-04-30T01:39:43.006Z,0
2023-04-30T01:40:43.605Z,0
2023-04-30T01:41:44.194Z,0
2023-04-30T01:42:44.792Z,0
2023-04-30T01:43:45.397Z,0
2023-04-30T01:44:45.996Z,0
2023-04-30T01:45:46.633Z,0
2023-04-30T01:46:47.219Z,0
2023-04-30T01:47:47.878Z,0
2023-04-30T01:48:48.428Z,0
2023-04-30T01:49:49.017Z,0
2023-04-30T01:50:49.635Z,0
2023-04-30T01:51:50.240Z,0
2023-04-30T01:52:50.841Z,0
2023-04-30T01:53:51.433Z,0
2023-04-30T01:54:52.055Z,0
2023-04-30T01:55:52.665Z,0
2023-04-30T01:56:53.236Z,0
2023-04-30T01:57:53.827Z,0
2023-04-30T01:58:54.418Z,0
2023-04-30T01:59:55.231Z,0
2023-04-30T02:00:56.062Z,0
2023-04-30T02:01:56.692Z,0
2023-04-30T02:02:57.334Z,0
2023-04-30T02:03:58.010Z,0
2023-04-30T02:04:58.549Z,0
2023-04-30T02:05:59.217Z,0
2023-04-30T02:06:59.758Z,0
2023-04-30T02:08:00.356Z,0
2023-04-30T02:09:00.947Z,0
2023-04-30T02:10:01.538Z,0
2023-04-30T02:11:02.129Z,0
2023-04-30T02:12:02.724Z,0
2023-04-30T02:13:03.325Z,0
2023-04-30T02:14:03.915Z,0
2023-04-30T02:15:04.508Z,0
2023-04-30T02:16:05.148Z,0
2023-04-30T02:17:05.700Z,0
2023-04-30T02:18:06.347Z,0
2023-04-30T02:19:06.937Z,0
2023-04-30T02:20:07.530Z,0
2023-04-30T02:21:08.146Z,0
2023-04-30T02:22:08.738Z,0
2023-04-30T02:23:09.330Z,0
2023-04-30T02:24:09.924Z,0
2023-04-30T02:25:10.516Z,0
2023-04-30T02:26:11.113Z,0
2023-04-30T02:27:11.707Z,0
2023-04-30T02:28:12.298Z,0
2023-04-30T02:29:12.892Z,0
2023-04-30T02:30:13.488Z,0
2023-04-30T02:31:14.105Z,0
2023-04-30T02:32:14.688Z,0
2023-04-30T02:33:15.270Z,0
2023-04-30T02:34:15.866Z,0
2023-04-30T02:35:16.468Z,0
2023-04-30T02:36:17.055Z,0
2023-04-30T02:37:17.666Z,0
2023-04-30T02:38:18.256Z,0
2023-04-30T02:39:18.854Z,0
2023-04-30T02:40:19.448Z,0
2023-04-30T02:41:20.056Z,0
2023-04-30T02:42:20.654Z,0
2023-04-30T02:43:21.268Z,0
2023-04-30T02:44:21.855Z,0
2023-04-30T02:45:22.453Z,0
2023-04-30T02:46:23.053Z,0
2023-04-30T02:47:23.647Z,0
2023-04-30T02:48:24.240Z,0
2023-04-30T02:49:24.832Z,0
2023-04-30T02:50:25.421Z,0
2023-04-30T02:51:26.018Z,0
2023-04-30T02:52:26.607Z,0
2023-04-30T02:53:27.221Z,0
2023-04-30T02:54:27.809Z,0
2023-04-30T02:55:28.410Z,0
2023-04-30T02:56:29.012Z,0
2023-04-30T02:57:29.602Z,0
2023-04-30T02:58:30.196Z,0
2023-04-30T02:59:30.812Z,0
2023-04-30T03:00:31.397Z,0
2023-04-30T03:01:32.057Z,0
2023-04-30T03:02:32.685Z,0
2023-04-30T03:03:33.358Z,0
2023-04-30T03:04:33.936Z,0
2023-04-30T03:05:34.530Z,0
2023-04-30T03:06:35.158Z,0
2023-04-30T03:07:35.716Z,0
2023-04-30T03:08:36.311Z,0
2023-04-30T03:09:36.909Z,0
2023-04-30T03:10:37.497Z,0
2023-04-30T03:11:38.092Z,0
2023-04-30T03:12:38.685Z,0
2023-04-30T03:13:39.286Z,0
2023-04-30T03:14:39.874Z,0
2023-04-30T03:15:40.497Z,0
2023-04-30T03:16:41.240Z,0
2023-04-30T03:17:43.751Z,4
2023-04-30T03:18:43.471Z,4
2023-04-30T03:19:44.068Z,4
2023-04-30T03:20:44.673Z,4
2023-04-30T03:21:45.258Z,4
2023-04-30T03:22:45.860Z,4
2023-04-30T03:23:46.458Z,4
2023-04-30T03:24:47.044Z,8
2023-04-30T03:25:47.641Z,8
2023-04-30T03:26:48.240Z,12
2023-04-30T03:27:48.853Z,12
2023-04-30T03:28:49.454Z,8
2023-04-30T03:29:50.040Z,12
2023-04-30T03:32:04.013Z,20
2023-04-30T03:33:04.718Z,24
2023-04-30T03:34:05.310Z,28
2023-04-30T03:35:05.896Z,32
2023-04-30T03:36:06.508Z,36
2023-04-30T03:37:07.085Z,44
2023-04-30T03:38:07.683Z,48
2023-04-30T03:39:08.277Z,60
2023-04-30T03:40:08.874Z,64
2023-04-30T03:41:09.467Z,80
2023-04-30T03:42:10.065Z,88
2023-04-30T03:43:10.662Z,104
2023-04-30T03:44:11.277Z,120
2023-04-30T03:45:11.874Z,140
2023-04-30T03:46:12.517Z,160
2023-04-30T03:47:13.071Z,180
2023-04-30T03:48:13.691Z,200
2023-04-30T03:49:14.276Z,228
2023-04-30T03:50:14.879Z,256
2023-04-30T03:51:15.475Z,288
2023-04-30T03:52:16.079Z,320
2023-04-30T03:53:16.693Z,352
2023-04-30T03:54:17.327Z,388
2023-04-30T03:55:17.911Z,428
2023-04-30T03:56:18.518Z,472
2023-04-30T03:57:19.118Z,516
2023-04-30T03:58:19.710Z,560
2023-04-30T03:59:20.304Z,612
2023-04-30T04:00:20.923Z,668
2023-04-30T04:01:21.495Z,720
2023-04-30T04:02:22.172Z,776
2023-04-30T04:03:22.762Z,836
2023-04-30T04:04:23.436Z,896
2023-04-30T04:05:24.080Z,956
2023-04-30T04:06:24.781Z,1024
2023-04-30T04:07:25.296Z,1092
2023-04-30T04:08:25.891Z,1160
2023-04-30T04:09:26.494Z,1228
2023-04-30T04:10:27.090Z,1304
2023-04-30T04:11:27.689Z,1372
2023-04-30T04:12:28.281Z,1448
2023-04-30T04:13:28.896Z,1520
2023-04-30T04:14:29.518Z,1596
2023-04-30T04:15:30.136Z,1672
2023-04-30T04:16:30.765Z,1748
2023-04-30T04:17:31.388Z,1824
2023-04-30T04:18:31.989Z,1900
2023-04-30T04:19:32.589Z,1980
2023-04-30T04:20:33.188Z,2052
2023-04-30T04:21:33.782Z,2128
2023-04-30T04:22:34.404Z,2204
2023-04-30T04:23:34.995Z,2276
2023-04-30T04:24:35.594Z,2352
2023-04-30T04:25:36.189Z,2428
2023-04-30T04:26:36.791Z,2500
2023-04-30T04:27:37.388Z,2572
2023-04-30T04:28:37.989Z,2644
2023-04-30T04:29:38.596Z,2712
2023-04-30T04:30:39.185Z,2780
2023-04-30T04:31:39.823Z,2848
2023-04-30T04:32:40.457Z,2920
2023-04-30T04:33:41.036Z,2984
2023-04-30T04:34:41.628Z,3048
2023-04-30T04:35:42.220Z,3108
2023-04-30T04:36:42.821Z,3424
2023-04-30T04:37:43.423Z,3492
2023-04-30T04:38:44.018Z,3560
2023-04-30T04:39:44.620Z,3632
2023-04-30T04:40:45.217Z,3700
2023-04-30T04:41:45.823Z,3764
2023-04-30T04:42:46.415Z,3828
2023-04-30T04:43:47.014Z,3892
2023-04-30T04:44:47.615Z,3952
2023-04-30T04:45:48.214Z,4008
2023-04-30T04:46:48.890Z,4072
2023-04-30T04:47:49.545Z,4132
2023-04-30T04:48:50.096Z,4196
2023-04-30T04:49:50.713Z,4248
2023-04-30T04:50:51.322Z,4304
2023-04-30T04:51:51.910Z,4364
2023-04-30T04:52:52.517Z,4424
2023-04-30T04:53:53.122Z,4476
2023-04-30T04:54:53.703Z,4532
2023-04-30T04:55:54.301Z,4596
2023-04-30T04:56:54.917Z,4648
2023-04-30T04:57:55.507Z,4700
2023-04-30T04:58:56.106Z,4740
2023-04-30T04:59:56.877Z,4784
2023-04-30T05:00:57.653Z,4832
2023-04-30T05:01:58.305Z,4972
2023-04-30T05:02:58.981Z,5016
2023-04-30T05:03:59.713Z,5064
2023-04-30T05:05:00.474Z,5116
2023-04-30T05:06:01.141Z,5164
2023-04-30T05:07:01.707Z,5204
2023-04-30T05:08:02.318Z,5240
2023-04-30T05:09:02.936Z,5288
2023-04-30T05:10:03.542Z,5336
2023-04-30T05:11:04.139Z,5392
2023-04-30T05:12:04.752Z,5432
2023-04-30T05:13:05.360Z,5468
2023-04-30T05:14:05.973Z,5496
2023-04-30T05:15:06.564Z,5536
2023-04-30T05:16:07.207Z,5576
2023-04-30T05:17:07.761Z,5620
2023-04-30T05:18:08.397Z,5664
2023-04-30T05:19:08.975Z,5696
2023-04-30T05:20:09.593Z,5732
2023-04-30T05:21:10.178Z,5760
2023-04-30T05:22:10.798Z,5788
2023-04-30T05:23:11.386Z,5820
2023-04-30T05:24:11.979Z,5848
2023-04-30T05:25:12.589Z,5876
2023-04-30T05:26:13.200Z,5900
2023-04-30T05:27:13.808Z,5928
2023-04-30T05:28:14.404Z,5964
2023-04-30T05:29:15.024Z,6000
2023-04-30T05:30:15.637Z,6036
2023-04-30T05:31:16.268Z,6068
2023-04-30T05:32:16.949Z,6096
2023-04-30T05:33:17.545Z,6124
2023-04-30T05:34:18.075Z,6152
2023-04-30T05:35:18.674Z,6192
2023-04-30T05:36:19.274Z,6244
2023-04-30T05:37:19.884Z,6288
2023-04-30T05:38:20.497Z,6348
2023-04-30T05:39:21.099Z,6412
2023-04-30T05:40:21.688Z,6464
2023-04-30T05:41:22.306Z,6500
2023-04-30T05:42:22.942Z,6548
2023-04-30T05:43:23.546Z,6680
2023-04-30T05:44:24.142Z,6700
2023-04-30T05:45:24.741Z,6728
2023-04-30T05:46:25.355Z,6780
2023-04-30T05:47:25.960Z,6928
2023-04-30T05:48:26.556Z,7088
2023-04-30T05:49:27.196Z,7232
2023-04-30T05:50:27.800Z,7320
2023-04-30T05:51:28.397Z,7404
2023-04-30T05:52:28.992Z,7472
2023-04-30T05:53:29.616Z,7528
2023-04-30T05:54:30.238Z,7620
2023-04-30T05:55:30.851Z,7680
2023-04-30T05:56:31.450Z,7712
2023-04-30T05:57:32.072Z,7752
2023-04-30T05:58:32.687Z,7824
2023-04-30T05:59:33.284Z,7916
2023-04-30T06:00:33.882Z,7992
2023-04-30T06:01:34.514Z,8064
2023-04-30T06:02:35.284Z,8160
2023-04-30T06:03:36.046Z,8212
2023-04-30T06:04:36.649Z,8264
2023-04-30T06:05:37.338Z,8328
2023-04-30T06:06:38.005Z,8384
2023-04-30T06:07:38.548Z,8496
2023-04-30T06:08:39.136Z,8576
2023-04-30T06:09:39.738Z,8584
2023-04-30T06:10:40.356Z,8596
2023-04-30T06:11:42.528Z,8684
2023-04-30T06:12:42.550Z,8776
2023-04-30T06:13:43.147Z,8920
2023-04-30T06:14:43.823Z,9096
2023-04-30T06:15:44.447Z,9148
2023-04-30T06:16:45.110Z,9108
2023-04-30T06:17:45.677Z,9216
2023-04-30T06:18:46.267Z,9360
2023-04-30T06:19:46.870Z,9656
2023-04-30T06:20:47.460Z,10024
2023-04-30T06:21:48.077Z,10812
2023-04-30T06:22:48.679Z,11272
2023-04-30T06:23:49.275Z,10620
2023-04-30T06:24:49.874Z,11300
2023-04-30T06:25:50.496Z,13064
2023-04-30T06:26:51.088Z,12872
2023-04-30T06:27:51.742Z,11872
2023-04-30T06:28:52.279Z,13228
2023-04-30T06:29:53.135Z,14520
2023-04-30T06:30:53.774Z,12956
2023-04-30T06:31:54.415Z,11724
2023-04-30T06:32:55.061Z,12308
2023-04-30T06:33:55.608Z,13236
2023-04-30T06:34:56.239Z,13960
2023-04-30T06:35:56.826Z,13832
2023-04-30T06:36:57.422Z,13656
2023-04-30T06:37:58.023Z,13856
2023-04-30T06:38:58.624Z,14128
2023-04-30T06:39:59.241Z,14356
2023-04-30T06:40:59.869Z,14628
2023-04-30T06:42:00.460Z,15776
2023-04-30T06:43:01.069Z,16188
2023-04-30T06:44:01.662Z,15784
2023-04-30T06:45:02.260Z,15052
2023-04-30T06:46:02.887Z,15652
2023-04-30T06:47:03.475Z,16664
2023-04-30T06:48:04.135Z,16712
2023-04-30T06:49:04.693Z,16816
2023-04-30T06:50:05.308Z,18240
2023-04-30T06:51:05.927Z,18464
2023-04-30T06:52:06.528Z,18272
2023-04-30T06:53:07.124Z,17216
2023-04-30T06:54:07.727Z,16832
2023-04-30T06:55:08.348Z,16896
2023-04-30T06:56:08.969Z,18432
2023-04-30T06:57:09.566Z,22496
2023-04-30T06:58:10.191Z,24064
2023-04-30T06:59:10.784Z,22304
2023-04-30T07:00:11.389Z,21632
2023-04-30T07:01:11.993Z,21152
2023-04-30T07:02:12.635Z,21504
2023-04-30T07:03:13.299Z,22944
2023-04-30T07:04:14.039Z,23456
2023-04-30T07:05:14.642Z,24640
2023-04-30T07:06:15.261Z,24736
2023-04-30T07:07:15.835Z,23232
2023-04-30T07:08:16.439Z,23232
2023-04-30T07:09:17.044Z,23712
2023-04-30T07:10:17.655Z,22272
2023-04-30T07:11:18.258Z,21024
2023-04-30T07:12:18.855Z,21344
2023-04-30T07:13:19.457Z,22560
2023-04-30T07:14:20.061Z,25792
2023-04-30T07:15:20.679Z,31776
2023-04-30T07:16:21.353Z,34464
2023-04-30T07:17:22.065Z,30688
2023-04-30T07:18:22.658Z,26720
2023-04-30T07:19:23.265Z,27904
2023-04-30T07:20:23.864Z,31040
2023-04-30T07:21:24.468Z,33600
2023-04-30T07:22:25.076Z,36800
2023-04-30T07:23:26.871Z,40288
2023-04-30T07:24:27.284Z,42624
2023-04-30T07:25:27.902Z,37888
2023-04-30T07:26:28.512Z,31392
2023-04-30T07:27:29.102Z,31968
2023-04-30T07:28:29.726Z,37952
2023-04-30T07:29:30.363Z,41472
2023-04-30T07:30:30.948Z,39648
2023-04-30T07:31:31.560Z,36000
2023-04-30T07:32:32.216Z,35840
2023-04-30T07:33:32.819Z,40864
2023-04-30T07:34:33.418Z,44832
2023-04-30T07:35:34.020Z,41888
2023-04-30T07:36:34.622Z,37632
2023-04-30T07:37:36.040Z,40544
2023-04-30T07:38:35.836Z,35488
2023-04-30T07:39:36.436Z,53056
2023-04-30T07:40:37.036Z,53024
2023-04-30T07:41:37.636Z,54112
2023-04-30T07:42:38.250Z,54752
2023-04-30T07:43:38.846Z,49760
2023-04-30T07:44:39.437Z,39136
2023-04-30T07:45:40.203Z,35968
2023-04-30T07:46:40.938Z,41856
2023-04-30T07:47:41.545Z,46528
2023-04-30T07:48:42.119Z,43808
2023-04-30T07:49:42.765Z,38528
2023-04-30T07:50:43.341Z,40032
2023-04-30T07:51:43.941Z,47296
2023-04-30T07:52:44.541Z,52192
2023-04-30T07:53:45.143Z,50368
2023-04-30T07:54:45.798Z,44992
2023-04-30T07:55:46.381Z,42560
2023-04-30T07:56:46.978Z,48288
2023-04-30T07:57:47.602Z,56128
2023-04-30T07:58:48.180Z,58208
2023-04-30T07:59:51.339Z,52928
2023-04-30T08:00:50.376Z,44544
2023-04-30T08:01:51.064Z,40640
2023-04-30T08:02:51.690Z,42048
2023-04-30T08:03:52.380Z,50080
2023-04-30T08:04:53.023Z,55040
2023-04-30T08:05:53.604Z,55328
2023-04-30T08:06:54.223Z,54624
2023-04-30T08:07:54.847Z,53248
2023-04-30T08:08:55.456Z,52128
2023-04-30T08:09:56.301Z,51648
2023-04-30T08:10:57.065Z,50912
2023-04-30T08:11:57.669Z,50432
2023-04-30T08:12:58.286Z,50752
2023-04-30T08:13:58.897Z,52192
2023-04-30T08:14:59.484Z,56544
2023-04-30T08:16:00.179Z,62336
2023-04-30T08:17:00.797Z,66176
2023-04-30T08:18:01.475Z,68032
2023-04-30T08:19:02.064Z,68992
2023-04-30T08:20:02.681Z,71040
2023-04-30T08:21:03.307Z,73344
2023-04-30T08:22:03.903Z,75584
2023-04-30T08:23:04.502Z,78752
2023-04-30T08:24:05.102Z,80896
2023-04-30T08:25:05.707Z,74912
2023-04-30T08:26:06.334Z,60928
2023-04-30T08:27:06.948Z,49184
2023-04-30T08:28:07.570Z,49632
2023-04-30T08:29:08.170Z,62496
2023-04-30T08:30:08.782Z,82304
2023-04-30T08:31:09.410Z,96288
2023-04-30T08:32:10.054Z,100672
2023-04-30T08:33:10.655Z,97184
2023-04-30T08:34:11.273Z,88960
2023-04-30T08:35:11.874Z,76384
2023-04-30T08:36:12.500Z,72384
2023-04-30T08:37:13.097Z,78912
2023-04-30T08:38:13.690Z,87936
2023-04-30T08:39:14.291Z,91840
2023-04-30T08:40:14.912Z,86112
2023-04-30T08:41:15.525Z,74464
2023-04-30T08:42:16.133Z,68000
2023-04-30T08:43:16.734Z,69952
2023-04-30T08:44:17.336Z,76160
2023-04-30T08:45:17.936Z,80096
2023-04-30T08:46:18.572Z,76320
2023-04-30T08:47:19.178Z,66912
2023-04-30T08:48:19.765Z,61312
2023-04-30T08:49:20.368Z,68960
2023-04-30T08:50:20.972Z,80896
2023-04-30T08:51:21.583Z,82208
2023-04-30T08:52:22.175Z,73920
2023-04-30T08:53:22.797Z,69664
2023-04-30T08:54:23.416Z,72736
2023-04-30T08:55:24.043Z,75168
2023-04-30T08:56:25.565Z,75424
2023-04-30T08:57:26.227Z,69312
2023-04-30T08:58:26.827Z,62976
2023-04-30T08:59:27.428Z,61120
2023-04-30T09:00:28.028Z,63648
2023-04-30T09:01:28.638Z,69760
2023-04-30T09:02:29.412Z,73984
2023-04-30T09:03:30.151Z,77184
2023-04-30T09:04:30.741Z,79200
2023-04-30T09:05:31.366Z,79520
2023-04-30T09:06:31.997Z,76960
2023-04-30T09:07:32.562Z,73152
2023-04-30T09:08:33.165Z,74304
2023-04-30T09:09:33.765Z,79680
2023-04-30T09:10:34.369Z,85696
2023-04-30T09:11:34.969Z,93056
2023-04-30T09:12:35.569Z,100992
2023-04-30T09:13:36.167Z,100608
2023-04-30T09:14:36.781Z,86496
2023-04-30T09:15:37.429Z,73696
2023-04-30T09:16:38.044Z,68896
2023-04-30T09:17:38.674Z,78368
2023-04-30T09:18:39.253Z,94880
2023-04-30T09:19:39.850Z,108768
2023-04-30T09:20:40.499Z,111392
2023-04-30T09:21:41.075Z,104896
2023-04-30T09:22:41.675Z,102272
2023-04-30T09:23:42.281Z,104864
2023-04-30T09:24:42.883Z,110304
2023-04-30T09:25:43.511Z,108736
2023-04-30T09:26:44.126Z,98112
2023-04-30T09:27:44.729Z,85248
2023-04-30T09:28:45.345Z,78496
2023-04-30T09:29:45.947Z,79200
2023-04-30T09:30:46.570Z,81600
2023-04-30T09:31:47.343Z,80256
2023-04-30T09:32:48.017Z,69536
2023-04-30T09:33:48.605Z,60864
2023-04-30T09:34:49.213Z,66176
2023-04-30T09:35:49.820Z,73760
2023-04-30T09:36:50.427Z,82784
2023-04-30T09:37:51.027Z,89664
2023-04-30T09:38:51.641Z,85312
2023-04-30T09:39:52.740Z,72768
2023-04-30T09:40:53.553Z,59392
2023-04-30T09:41:54.157Z,52256
2023-04-30T09:42:54.781Z,57728
2023-04-30T09:43:55.351Z,77824
2023-04-30T09:44:55.956Z,91328
2023-04-30T09:45:56.552Z,89664
2023-04-30T09:46:57.254Z,83328
2023-04-30T09:48:09.058Z,80512
2023-04-30T09:48:59.385Z,76160
2023-04-30T09:50:00.092Z,77152
2023-04-30T09:51:00.732Z,72672
2023-04-30T09:52:01.425Z,64640
2023-04-30T09:53:02.027Z,62112
2023-04-30T09:54:02.634Z,66112
2023-04-30T09:55:03.259Z,70848
2023-04-30T09:56:03.849Z,79904
2023-04-30T09:57:04.450Z,88448
2023-04-30T09:58:05.053Z,95520
2023-04-30T09:59:05.679Z,97376
2023-04-30T10:00:06.296Z,92096
2023-04-30T10:01:06.963Z,86176
2023-04-30T10:02:07.541Z,87392
2023-04-30T10:03:08.230Z,105056
2023-04-30T10:04:08.928Z,121376
2023-04-30T10:05:09.519Z,126368
2023-04-30T10:06:10.230Z,116384
2023-04-30T10:07:11.329Z,98720
2023-04-30T10:08:12.322Z,89984
2023-04-30T10:09:12.926Z,110752
2023-04-30T10:10:13.527Z,140640
2023-04-30T10:11:14.129Z,158272
2023-04-30T10:12:14.731Z,147072
2023-04-30T10:13:15.351Z,113152
2023-04-30T10:14:15.973Z,78208
2023-04-30T10:15:16.640Z,69376
2023-04-30T10:16:17.260Z,90496
2023-04-30T10:17:17.837Z,129600
2023-04-30T10:18:18.429Z,161984
2023-04-30T10:19:19.050Z,156704
2023-04-30T10:20:19.646Z,121856
2023-04-30T10:21:20.236Z,87040
2023-04-30T10:22:20.838Z,78592
2023-04-30T10:23:21.449Z,92672
2023-04-30T10:24:22.088Z,122304
2023-04-30T10:25:22.676Z,144768
2023-04-30T10:26:23.281Z,141856
2023-04-30T10:27:23.879Z,120800
2023-04-30T10:28:24.493Z,105952
2023-04-30T10:29:25.104Z,104512
2023-04-30T10:30:25.715Z,103616
2023-04-30T10:31:26.347Z,111392
2023-04-30T10:32:27.079Z,124800
2023-04-30T10:33:27.736Z,121056
2023-04-30T10:34:28.338Z,108768
2023-04-30T10:35:28.939Z,110016
2023-04-30T10:36:29.542Z,119520
2023-04-30T10:37:30.145Z,124544
2023-04-30T10:38:30.747Z,128672
2023-04-30T10:39:31.379Z,133728
2023-04-30T10:40:31.981Z,130560
2023-04-30T10:41:32.607Z,117024
2023-04-30T10:42:33.187Z,111936
2023-04-30T10:43:33.792Z,111616
2023-04-30T10:44:34.395Z,112032
2023-04-30T10:45:35.158Z,114624
2023-04-30T10:46:35.862Z,124384
2023-04-30T10:47:36.432Z,137920
2023-04-30T10:48:37.004Z,152864
2023-04-30T10:49:37.607Z,160288
2023-04-30T10:50:38.228Z,161504
2023-04-30T10:51:38.832Z,152512
2023-04-30T10:52:39.435Z,137984
2023-04-30T10:53:40.040Z,129472
2023-04-30T10:54:40.641Z,131584
2023-04-30T10:55:41.242Z,134272
2023-04-30T10:56:41.847Z,131296
2023-04-30T10:57:42.498Z,123616
2023-04-30T10:58:43.093Z,119776
2023-04-30T10:59:43.695Z,121728
2023-04-30T11:00:45.015Z,127232
2023-04-30T11:01:45.658Z,135584
2023-04-30T11:02:46.290Z,135968
2023-04-30T11:03:46.844Z,124768
2023-04-30T11:04:47.536Z,114912
2023-04-30T11:05:48.098Z,112576
2023-04-30T11:06:48.831Z,119584
2023-04-30T11:07:49.513Z,120128
2023-04-30T11:08:50.140Z,108640
2023-04-30T11:09:50.749Z,93472
2023-04-30T11:10:51.351Z,82432
2023-04-30T11:11:51.953Z,82528
2023-04-30T11:12:52.564Z,97344
2023-04-30T11:13:53.163Z,117536
2023-04-30T11:14:53.811Z,134816
2023-04-30T11:15:54.405Z,145568
2023-04-30T11:16:54.985Z,135136
2023-04-30T11:17:55.626Z,122432
2023-04-30T11:18:56.188Z,118528
2023-04-30T11:19:57.009Z,131008
2023-04-30T11:20:57.648Z,155744
2023-04-30T11:21:58.251Z,183616
2023-04-30T11:22:58.851Z,203680
2023-04-30T11:23:59.455Z,194912
2023-04-30T11:25:00.061Z,165280
2023-04-30T11:26:00.659Z,131136
2023-04-30T11:27:01.263Z,112576
2023-04-30T11:28:01.892Z,116544
2023-04-30T11:29:02.509Z,137696
2023-04-30T11:30:03.108Z,157792
2023-04-30T11:31:03.745Z,173536
2023-04-30T11:32:04.312Z,173344
2023-04-30T11:33:04.956Z,160672
2023-04-30T11:34:05.559Z,148640
2023-04-30T11:35:06.237Z,146432
2023-04-30T11:36:06.884Z,149152
2023-04-30T11:37:07.477Z,157728
2023-04-30T11:38:08.090Z,172832
2023-04-30T11:39:08.697Z,183616
2023-04-30T11:40:09.293Z,180064
2023-04-30T11:41:09.886Z,166016
2023-04-30T11:42:10.488Z,152096
2023-04-30T11:43:11.109Z,146336
2023-04-30T11:44:11.715Z,145984
2023-04-30T11:45:12.327Z,145600
2023-04-30T11:46:12.946Z,150016
2023-04-30T11:47:13.540Z,155488
2023-04-30T11:48:14.217Z,150112
2023-04-30T11:49:14.822Z,131904
2023-04-30T11:50:15.447Z,114368
2023-04-30T11:51:16.060Z,108064
2023-04-30T11:52:16.653Z,109888
2023-04-30T11:53:17.248Z,119424
2023-04-30T11:54:17.853Z,138400
2023-04-30T11:55:18.492Z,151552
2023-04-30T11:56:19.083Z,144672
2023-04-30T11:57:19.679Z,121472
2023-04-30T11:58:20.284Z,100032
2023-04-30T11:59:20.887Z,97824
2023-04-30T12:00:21.549Z,111008
2023-04-30T12:01:22.101Z,138016
2023-04-30T12:02:22.766Z,158368
2023-04-30T12:03:23.512Z,168992
2023-04-30T12:04:24.156Z,169152
2023-04-30T12:05:24.758Z,154080
2023-04-30T12:06:25.485Z,129824
2023-04-30T12:07:26.075Z,117760
2023-04-30T12:08:26.708Z,126912
2023-04-30T12:09:27.289Z,149728
2023-04-30T12:10:27.899Z,173344
2023-04-30T12:11:28.485Z,188224
2023-04-30T12:12:29.086Z,187776
2023-04-30T12:13:29.694Z,164256
2023-04-30T12:14:30.297Z,130048
2023-04-30T12:15:30.901Z,110816
2023-04-30T12:16:31.570Z,115712
2023-04-30T12:17:32.142Z,136448
2023-04-30T12:18:32.786Z,154400
2023-04-30T12:19:33.386Z,154624
2023-04-30T12:20:33.994Z,150144
2023-04-30T12:21:34.611Z,148416
2023-04-30T12:22:35.213Z,144000
2023-04-30T12:23:35.820Z,135296
2023-04-30T12:24:36.423Z,131104
2023-04-30T12:25:37.024Z,130336
2023-04-30T12:26:37.630Z,133600
2023-04-30T12:27:38.250Z,138080
2023-04-30T12:28:38.848Z,136672
2023-04-30T12:29:39.452Z,131264
2023-04-30T12:30:40.052Z,130400
2023-04-30T12:31:40.682Z,135008
2023-04-30T12:32:41.305Z,138592
2023-04-30T12:33:41.891Z,132704
2023-04-30T12:34:42.496Z,122592
2023-04-30T12:35:43.093Z,111648
2023-04-30T12:36:43.702Z,105856
2023-04-30T12:37:44.315Z,117664
2023-04-30T12:38:44.905Z,138016
2023-04-30T12:39:45.507Z,160096
2023-04-30T12:40:46.108Z,163936
2023-04-30T12:41:46.715Z,145920
2023-04-30T12:42:47.315Z,121248
2023-04-30T12:43:47.953Z,105568
2023-04-30T12:44:48.536Z,106880
2023-04-30T12:45:49.160Z,115456
2023-04-30T12:46:49.755Z,123712
2023-04-30T12:47:50.356Z,130368
2023-04-30T12:48:50.972Z,134688
2023-04-30T12:49:51.577Z,131296
2023-04-30T12:50:52.181Z,120000
2023-04-30T12:51:52.782Z,106080
2023-04-30T12:52:53.395Z,90368
2023-04-30T12:53:53.984Z,81440
2023-04-30T12:54:54.599Z,88544
2023-04-30T12:55:55.209Z,105568
2023-04-30T12:56:55.806Z,116736
2023-04-30T12:57:56.410Z,120800
2023-04-30T12:58:57.026Z,119712
2023-04-30T12:59:57.871Z,115360
2023-04-30T13:00:58.235Z,105056
2023-04-30T13:01:58.888Z,97824
2023-04-30T13:02:59.565Z,96736
2023-04-30T13:04:00.260Z,106048
2023-04-30T13:05:00.865Z,121952
2023-04-30T13:06:01.513Z,142016
2023-04-30T13:07:02.090Z,153504
2023-04-30T13:08:02.693Z,150656
2023-04-30T13:09:03.315Z,134432
2023-04-30T13:10:03.918Z,114528
2023-04-30T13:11:04.513Z,101984
2023-04-30T13:12:05.125Z,114976
2023-04-30T13:13:05.730Z,143584
2023-04-30T13:14:06.346Z,171936
2023-04-30T13:15:06.967Z,172000
2023-04-30T13:16:07.633Z,153536
2023-04-30T13:17:08.252Z,123584
2023-04-30T13:18:08.961Z,106304
2023-04-30T13:19:09.578Z,113344
2023-04-30T13:20:10.171Z,143616
2023-04-30T13:21:10.809Z,147680
2023-04-30T13:22:11.377Z,147808
2023-04-30T13:23:12.441Z,144512
2023-04-30T13:24:13.035Z,144896
2023-04-30T13:25:13.632Z,141248
2023-04-30T13:26:14.274Z,136640
2023-04-30T13:27:14.843Z,131936
2023-04-30T13:28:15.464Z,112960
2023-04-30T13:29:16.062Z,93792